Time;durP1;ratioP1;P1;durP2;ratioP2;P2;SDS_P1;SDS_P2;PMS_P1;PMS_P2;Temp;Humidity;BMP_temperature;BMP_pressure;BME280_temperature;BME280_humidity;BME280_pressure;Samples;Min_cycle;Max_cycle;Signal;HPM_P1;HPM_P2
2021/12/18 00:00:27;;;;;;;37.37;20.10;;;;;;;;;;4969428;28;20204;-65
2021/12/18 00:02:54;;;;;;;32.97;19.43;;;;;;;;;;4963605;28;20290;-65
2021/12/18 00:05:22;;;;;;;33.90;20.37;;;;;;;;;;4980710;28;20216;-64
2021/12/18 00:07:49;;;;;;;33.27;19.60;;;;;;;;;;4970460;28;20706;-63
2021/12/18 00:10:20;;;;;;;35.47;20.60;;;;;;;;;;4962360;28;20201;-63
2021/12/18 00:12:49;;;;;;;35.17;20.87;;;;;;;;;;4981844;28;20228;-63
2021/12/18 00:15:17;;;;;;;33.77;19.77;;;;;;;;;;4960537;28;20732;-65
2021/12/18 00:17:44;;;;;;;36.27;19.80;;;;;;;;;;4970296;28;20205;-63
2021/12/18 00:20:14;;;;;;;34.00;19.17;;;;;;;;;;4984278;28;20251;-64
2021/12/18 00:22:43;;;;;;;33.90;18.57;;;;;;;;;;4974450;28;20227;-63
2021/12/18 00:25:10;;;;;;;33.27;19.60;;;;;;;;;;4965569;28;20216;-65
2021/12/18 00:27:38;;;;;;;34.53;18.80;;;;;;;;;;4965230;28;20205;-64
2021/12/18 00:30:06;;;;;;;41.43;20.43;;;;;;;;;;4974938;28;20204;-64
2021/12/18 00:32:33;;;;;;;38.50;20.77;;;;;;;;;;4964808;28;20232;-63
2021/12/18 00:35:01;;;;;;;34.27;19.00;;;;;;;;;;4979810;28;20220;-66
2021/12/18 00:37:28;;;;;;;34.37;19.47;;;;;;;;;;4986797;28;20212;-64
2021/12/18 00:39:58;;;;;;;35.57;20.07;;;;;;;;;;4975019;28;20228;-63
2021/12/18 00:42:40;;;;;;;35.57;19.53;;;;;;;;;;4980420;28;20271;-64
2021/12/18 00:45:09;;;;;;;35.30;19.30;;;;;;;;;;4961355;28;20220;-64
2021/12/18 00:47:37;;;;;;;32.30;19.40;;;;;;;;;;4965634;28;20208;-65
2021/12/18 00:50:05;;;;;;;38.93;19.47;;;;;;;;;;4969522;28;20248;-65
2021/12/18 00:52:33;;;;;;;37.53;19.77;;;;;;;;;;4961464;28;20599;-64
2021/12/18 00:55:00;;;;;;;36.03;19.10;;;;;;;;;;4954635;28;20235;-63
2021/12/18 00:57:28;;;;;;;36.37;20.80;;;;;;;;;;4974363;28;20250;-65
2021/12/18 01:00:00;;;;;;;40.53;20.07;;;;;;;;;;4978025;28;20266;-64
2021/12/18 01:02:28;;;;;;;39.47;20.73;;;;;;;;;;4967253;28;20220;-64
2021/12/18 01:04:56;;;;;;;39.70;21.43;;;;;;;;;;4968288;28;20212;-63
2021/12/18 01:07:24;;;;;;;46.53;21.17;;;;;;;;;;4975509;28;20629;-64
2021/12/18 01:12:23;;;;;;;45.20;21.77;;;;;;;;;;4977046;28;20232;-62
2021/12/18 01:15:08;;;;;;;42.53;20.93;;;;;;;;;;4962756;28;20232;-62
2021/12/18 01:23:09;;;;;;;52.00;24.50;;;;;;;;;;4978324;28;20224;-64
2021/12/18 01:25:36;;;;;;;51.83;24.50;;;;;;;;;;4976615;28;20235;-64
2021/12/18 01:28:04;;;;;;;44.17;22.83;;;;;;;;;;4965034;28;20204;-64
2021/12/18 01:30:31;;;;;;;43.77;22.30;;;;;;;;;;4971316;28;20204;-64
2021/12/18 01:32:58;;;;;;;41.77;21.70;;;;;;;;;;4969078;28;20224;-63
2021/12/18 01:35:26;;;;;;;43.20;20.20;;;;;;;;;;4975728;28;20316;-64
2021/12/18 01:37:53;;;;;;;41.57;19.90;;;;;;;;;;4981251;28;20262;-65
2021/12/18 01:40:22;;;;;;;44.43;19.83;;;;;;;;;;4962205;28;20200;-63
2021/12/18 01:44:33;;;;;;;42.33;20.50;;;;;;;;;;4958394;28;20224;-63
2021/12/18 01:46:08;;;;;;;40.87;20.17;;;;;;;;;;4965754;28;20209;-64
2021/12/18 01:53:49;;;;;;;41.33;20.23;;;;;;;;;;4979888;28;20267;-64
2021/12/18 01:56:17;;;;;;;42.40;18.50;;;;;;;;;;4975739;28;20225;-64
2021/12/18 01:58:45;;;;;;;42.70;19.03;;;;;;;;;;4978956;28;20200;-64
2021/12/18 02:01:13;;;;;;;43.67;20.23;;;;;;;;;;4965628;28;20208;-64
2021/12/18 02:03:41;;;;;;;41.73;19.60;;;;;;;;;;4957394;28;20205;-65
2021/12/18 02:06:09;;;;;;;42.10;20.30;;;;;;;;;;4974837;28;20563;-64
2021/12/18 02:08:38;;;;;;;42.33;18.57;;;;;;;;;;4967242;28;20204;-65
2021/12/18 02:14:22;;;;;;;35.17;15.87;;;;;;;;;;4975486;28;20212;-64
2021/12/18 02:19:55;;;;;;;40.07;14.53;;;;;;;;;;4973416;28;20208;-64
2021/12/18 02:22:24;;;;;;;33.10;14.93;;;;;;;;;;4973831;28;20267;-65
2021/12/18 02:24:52;;;;;;;51.87;15.87;;;;;;;;;;4978754;28;20266;-64
2021/12/18 02:27:19;;;;;;;34.00;15.97;;;;;;;;;;4984183;28;20268;-64
2021/12/18 02:29:47;;;;;;;33.13;15.47;;;;;;;;;;4966006;28;20205;-64
2021/12/18 02:32:16;;;;;;;34.77;15.10;;;;;;;;;;4975177;28;20232;-64
2021/12/18 02:34:52;;;;;;;58.90;16.87;;;;;;;;;;4963144;28;20228;-62
2021/12/18 02:37:23;;;;;;;35.73;14.97;;;;;;;;;;4968428;28;20216;-63
2021/12/18 02:42:24;;;;;;;61.17;16.10;;;;;;;;;;4981434;28;20748;-64
2021/12/18 02:44:51;;;;;;;56.90;15.83;;;;;;;;;;4974687;28;20209;-64
2021/12/18 02:47:18;;;;;;;43.00;15.33;;;;;;;;;;4963029;28;20489;-65
2021/12/18 02:49:48;;;;;;;51.90;17.13;;;;;;;;;;4968965;28;20209;-64
2021/12/18 02:52:17;;;;;;;43.90;17.17;;;;;;;;;;4976944;28;20635;-64
2021/12/18 02:54:44;;;;;;;39.67;16.67;;;;;;;;;;4971665;28;20792;-64
2021/12/18 02:57:12;;;;;;;39.63;17.50;;;;;;;;;;4974682;28;20263;-62
2021/12/18 02:59:43;;;;;;;35.97;17.10;;;;;;;;;;4960065;28;20200;-64
2021/12/18 03:02:12;;;;;;;49.10;18.23;;;;;;;;;;4979495;28;20253;-62
2021/12/18 03:04:42;;;;;;;117.43;18.53;;;;;;;;;;4963173;28;20227;-62
2021/12/18 03:07:12;;;;;;;40.57;17.27;;;;;;;;;;4970946;28;20208;-64
2021/12/18 03:21:55;;;;;;;38.07;16.57;;;;;;;;;;4975342;28;20211;-64
2021/12/18 03:24:08;;;;;;;39.40;16.60;;;;;;;;;;4980140;28;20209;-65
2021/12/18 03:26:36;;;;;;;36.57;15.50;;;;;;;;;;4971609;28;20201;-65
2021/12/18 03:29:03;;;;;;;39.03;16.17;;;;;;;;;;4976606;28;20220;-65
2021/12/18 03:31:33;;;;;;;46.83;16.87;;;;;;;;;;4960804;28;20603;-63
2021/12/18 03:34:00;;;;;;;53.33;15.50;;;;;;;;;;4968457;28;20801;-64
2021/12/18 03:36:28;;;;;;;29.67;14.90;;;;;;;;;;4976999;28;20780;-63
2021/12/18 03:38:55;;;;;;;50.67;16.00;;;;;;;;;;4977172;28;20328;-63
2021/12/18 03:41:22;;;;;;;36.53;15.40;;;;;;;;;;4977940;28;20212;-63
2021/12/18 03:43:50;;;;;;;37.17;14.07;;;;;;;;;;4955177;28;20212;-62
2021/12/18 03:46:17;;;;;;;35.90;14.67;;;;;;;;;;4986843;28;20204;-63
2021/12/18 03:48:44;;;;;;;37.53;13.03;;;;;;;;;;4964910;28;20705;-64
2021/12/18 03:51:12;;;;;;;32.63;14.80;;;;;;;;;;4965186;28;20288;-62
2021/12/18 03:53:39;;;;;;;33.60;14.43;;;;;;;;;;4964350;28;20200;-64
2021/12/18 03:56:07;;;;;;;32.30;13.43;;;;;;;;;;4965176;28;20287;-65
2021/12/18 03:58:34;;;;;;;34.03;14.40;;;;;;;;;;4969510;28;20659;-64
2021/12/18 04:01:02;;;;;;;29.30;14.07;;;;;;;;;;4977045;28;20208;-63
2021/12/18 04:03:29;;;;;;;29.77;14.90;;;;;;;;;;4989266;28;20204;-64
2021/12/18 04:05:57;;;;;;;42.43;14.07;;;;;;;;;;4973313;28;20667;-64
2021/12/18 04:08:24;;;;;;;45.03;16.70;;;;;;;;;;4968970;28;20263;-64
2021/12/18 04:10:51;;;;;;;33.33;14.80;;;;;;;;;;4976472;28;20266;-64
2021/12/18 04:13:19;;;;;;;38.73;15.07;;;;;;;;;;4965510;28;20619;-63
2021/12/18 04:15:46;;;;;;;25.00;13.70;;;;;;;;;;4968129;28;20228;-63
2021/12/18 04:18:14;;;;;;;29.77;14.27;;;;;;;;;;4971575;28;20213;-64
2021/12/18 04:20:41;;;;;;;30.63;14.70;;;;;;;;;;4966631;28;20596;-62
2021/12/18 04:23:08;;;;;;;43.73;16.20;;;;;;;;;;4975880;28;20232;-62
2021/12/18 04:25:36;;;;;;;50.27;15.07;;;;;;;;;;4970322;28;20679;-64
2021/12/18 04:28:03;;;;;;;35.53;14.00;;;;;;;;;;4972560;28;20208;-63
2021/12/18 04:30:30;;;;;;;24.87;12.87;;;;;;;;;;4963310;28;20216;-64
2021/12/18 04:32:58;;;;;;;29.93;13.20;;;;;;;;;;4975752;28;20228;-64
2021/12/18 04:35:27;;;;;;;30.23;14.37;;;;;;;;;;4981188;28;20267;-64
2021/12/18 04:37:55;;;;;;;27.97;13.60;;;;;;;;;;4987983;28;20208;-64
2021/12/18 04:40:26;;;;;;;34.37;13.77;;;;;;;;;;4957270;28;20197;-64
2021/12/18 04:42:55;;;;;;;24.10;13.60;;;;;;;;;;4960579;28;20217;-64
2021/12/18 04:45:23;;;;;;;28.53;14.20;;;;;;;;;;4974453;28;22220;-64
2021/12/18 04:47:51;;;;;;;37.10;14.47;;;;;;;;;;4971141;28;20212;-65
2021/12/18 04:50:18;;;;;;;50.50;13.97;;;;;;;;;;4973563;28;20697;-65
2021/12/18 04:52:46;;;;;;;40.87;15.60;;;;;;;;;;4970908;28;20221;-64
2021/12/18 04:55:13;;;;;;;32.97;14.07;;;;;;;;;;4960116;28;20534;-64
2021/12/18 04:57:40;;;;;;;31.43;13.77;;;;;;;;;;4969858;28;20208;-64
2021/12/18 05:00:09;;;;;;;38.87;14.63;;;;;;;;;;4966495;28;20256;-65
2021/12/18 05:02:40;;;;;;;33.13;14.37;;;;;;;;;;4963225;28;20228;-63
2021/12/18 05:05:10;;;;;;;26.60;14.27;;;;;;;;;;4950173;28;20642;-65
2021/12/18 05:07:37;;;;;;;33.63;14.30;;;;;;;;;;4962013;28;20256;-64
2021/12/18 05:10:06;;;;;;;28.17;14.20;;;;;;;;;;4978159;28;20901;-64
2021/12/18 05:12:33;;;;;;;36.23;16.67;;;;;;;;;;4975016;28;20714;-64
2021/12/18 05:15:01;;;;;;;28.20;14.00;;;;;;;;;;4976980;28;20212;-65
2021/12/18 05:17:28;;;;;;;27.23;14.10;;;;;;;;;;4977706;28;20208;-64
2021/12/18 05:19:55;;;;;;;22.23;13.27;;;;;;;;;;4968064;28;20204;-64
2021/12/18 05:22:23;;;;;;;25.50;13.80;;;;;;;;;;4988319;28;20217;-64
2021/12/18 05:24:50;;;;;;;26.10;13.17;;;;;;;;;;4979777;28;20211;-65
2021/12/18 05:27:18;;;;;;;37.20;14.77;;;;;;;;;;4971079;28;20278;-64
2021/12/18 05:29:45;;;;;;;29.17;14.07;;;;;;;;;;4982280;28;20263;-64
2021/12/18 05:32:12;;;;;;;24.37;13.43;;;;;;;;;;4970689;28;20598;-64
2021/12/18 05:34:40;;;;;;;28.00;14.17;;;;;;;;;;4968373;28;20219;-64
2021/12/18 05:37:20;;;;;;;22.87;13.70;;;;;;;;;;4947535;28;20331;-63
2021/12/18 05:39:48;;;;;;;34.83;13.90;;;;;;;;;;4953909;28;20211;-63
2021/12/18 05:42:16;;;;;;;24.80;13.80;;;;;;;;;;4974651;28;20259;-64
2021/12/18 05:44:43;;;;;;;30.40;14.23;;;;;;;;;;4952229;28;20196;-65
2021/12/18 05:47:11;;;;;;;29.73;15.70;;;;;;;;;;4973572;28;20205;-64
2021/12/18 05:49:39;;;;;;;49.33;14.80;;;;;;;;;;4962038;28;20281;-64
2021/12/18 05:52:06;;;;;;;35.73;14.53;;;;;;;;;;4978971;28;20291;-64
2021/12/18 05:54:35;;;;;;;51.13;15.00;;;;;;;;;;4972143;28;20204;-64
2021/12/18 05:57:04;;;;;;;32.50;14.60;;;;;;;;;;4973975;28;20294;-64
2021/12/18 05:59:31;;;;;;;30.87;15.37;;;;;;;;;;4970147;28;20209;-65
2021/12/18 06:01:59;;;;;;;38.13;14.07;;;;;;;;;;4974746;28;20748;-63
2021/12/18 06:04:27;;;;;;;30.83;13.97;;;;;;;;;;4966612;28;20227;-62
2021/12/18 06:07:03;;;;;;;35.80;13.57;;;;;;;;;;4963882;28;20212;-65
2021/12/18 06:09:32;;;;;;;31.10;13.77;;;;;;;;;;4973061;28;20676;-62
2021/12/18 06:12:00;;;;;;;22.33;12.87;;;;;;;;;;4972883;28;20232;-64
2021/12/18 06:14:28;;;;;;;22.10;13.47;;;;;;;;;;4973662;28;20581;-64
2021/12/18 06:16:56;;;;;;;34.90;14.03;;;;;;;;;;4962995;28;20228;-64
2021/12/18 06:19:23;;;;;;;38.50;14.07;;;;;;;;;;4967869;28;20608;-64
2021/12/18 06:21:50;;;;;;;27.37;13.83;;;;;;;;;;4965814;28;20274;-64
2021/12/18 06:24:18;;;;;;;25.67;14.73;;;;;;;;;;4978057;28;20223;-64
2021/12/18 06:26:45;;;;;;;47.73;15.93;;;;;;;;;;4981390;28;20647;-64
2021/12/18 06:29:13;;;;;;;28.13;15.43;;;;;;;;;;4965208;28;20212;-63
2021/12/18 06:31:40;;;;;;;35.03;18.30;;;;;;;;;;4967982;28;20761;-63
2021/12/18 06:34:12;;;;;;;34.53;14.63;;;;;;;;;;4964421;28;20567;-65
2021/12/18 06:36:40;;;;;;;27.67;15.77;;;;;;;;;;4970317;28;20228;-62
2021/12/18 06:39:07;;;;;;;33.27;16.33;;;;;;;;;;4967915;28;20200;-63
2021/12/18 06:41:35;;;;;;;23.60;13.90;;;;;;;;;;4959725;28;20227;-64
2021/12/18 06:44:02;;;;;;;22.53;13.80;;;;;;;;;;4977472;28;20555;-63
2021/12/18 06:46:30;;;;;;;21.20;11.70;;;;;;;;;;4969189;28;20204;-64
2021/12/18 06:48:57;;;;;;;24.17;12.93;;;;;;;;;;4981165;28;20220;-63
2021/12/18 06:51:25;;;;;;;30.80;15.73;;;;;;;;;;4959934;28;20291;-63
2021/12/18 06:53:52;;;;;;;34.43;16.43;;;;;;;;;;4976929;28;20267;-63
2021/12/18 06:56:20;;;;;;;32.43;16.50;;;;;;;;;;4968533;28;20316;-64
2021/12/18 06:58:48;;;;;;;27.83;14.53;;;;;;;;;;4966010;28;20201;-64
2021/12/18 07:01:15;;;;;;;48.93;16.93;;;;;;;;;;4975967;28;20204;-63
2021/12/18 07:03:45;;;;;;;30.80;14.77;;;;;;;;;;4973708;28;20291;-64
2021/12/18 07:06:13;;;;;;;45.83;16.90;;;;;;;;;;4962822;28;20266;-64
2021/12/18 07:08:40;;;;;;;48.13;13.10;;;;;;;;;;4972081;28;20201;-65
2021/12/18 07:11:07;;;;;;;20.40;13.23;;;;;;;;;;4974588;28;20295;-65
2021/12/18 07:13:35;;;;;;;31.43;13.27;;;;;;;;;;4966803;28;20204;-64
2021/12/18 07:16:02;;;;;;;54.83;17.40;;;;;;;;;;4975863;28;20233;-62
2021/12/18 07:18:30;;;;;;;26.23;16.23;;;;;;;;;;4964584;28;20205;-64
2021/12/18 07:20:58;;;;;;;36.80;16.00;;;;;;;;;;4984160;28;20208;-64
2021/12/18 07:23:25;;;;;;;39.03;14.27;;;;;;;;;;4965401;28;20242;-65
2021/12/18 07:25:53;;;;;;;48.40;14.90;;;;;;;;;;4962379;28;20215;-65
2021/12/18 07:28:20;;;;;;;39.60;13.67;;;;;;;;;;4968310;28;20201;-64
2021/12/18 07:30:47;;;;;;;33.80;15.53;;;;;;;;;;4971544;28;20208;-63
2021/12/18 07:33:15;;;;;;;41.60;17.07;;;;;;;;;;4988893;28;20231;-64
2021/12/18 07:35:43;;;;;;;26.07;14.53;;;;;;;;;;4961092;28;20223;-63
2021/12/18 07:38:11;;;;;;;35.20;18.00;;;;;;;;;;4990458;28;20208;-63
2021/12/18 07:40:39;;;;;;;38.40;17.97;;;;;;;;;;4974002;28;20915;-63
2021/12/18 07:43:06;;;;;;;37.70;14.97;;;;;;;;;;4972520;28;20239;-65
2021/12/18 07:45:34;;;;;;;31.00;17.20;;;;;;;;;;4974524;28;20212;-64
2021/12/18 07:48:02;;;;;;;29.27;13.90;;;;;;;;;;4972248;28;20637;-65
2021/12/18 07:50:30;;;;;;;24.37;11.60;;;;;;;;;;4961982;28;20201;-65
2021/12/18 07:52:58;;;;;;;16.33;10.93;;;;;;;;;;4962004;28;20729;-63
2021/12/18 07:55:25;;;;;;;17.87;11.20;;;;;;;;;;4955076;28;20200;-65
2021/12/18 07:57:54;;;;;;;19.83;12.47;;;;;;;;;;4952838;28;20830;-63
2021/12/18 08:00:21;;;;;;;17.33;10.23;;;;;;;;;;4958659;28;20264;-63
2021/12/18 08:02:49;;;;;;;24.10;11.80;;;;;;;;;;4959279;28;21001;-64
2021/12/18 08:05:16;;;;;;;23.63;12.17;;;;;;;;;;4969258;28;20670;-63
2021/12/18 08:07:44;;;;;;;19.43;11.10;;;;;;;;;;4958176;28;20654;-63
2021/12/18 08:10:12;;;;;;;19.53;11.20;;;;;;;;;;4963595;28;20703;-62
2021/12/18 08:12:39;;;;;;;19.90;11.40;;;;;;;;;;4977374;28;20247;-66
2021/12/18 08:15:07;;;;;;;20.03;12.40;;;;;;;;;;4977038;28;20251;-64
2021/12/18 08:17:34;;;;;;;24.30;11.07;;;;;;;;;;4965206;28;20239;-63
2021/12/18 08:20:03;;;;;;;20.40;11.77;;;;;;;;;;4957461;28;20279;-62
2021/12/18 08:22:31;;;;;;;27.73;11.93;;;;;;;;;;4985654;28;20227;-64
2021/12/18 08:24:58;;;;;;;23.17;13.03;;;;;;;;;;4947438;28;20204;-62
2021/12/18 08:27:29;;;;;;;26.23;12.57;;;;;;;;;;4959416;28;20674;-64
2021/12/18 08:29:57;;;;;;;18.63;10.50;;;;;;;;;;4961704;28;20216;-63
2021/12/18 08:32:24;;;;;;;31.87;11.00;;;;;;;;;;4953622;28;20232;-64
2021/12/18 08:34:53;;;;;;;20.77;10.93;;;;;;;;;;4965258;28;20237;-64
2021/12/18 08:37:20;;;;;;;20.43;10.73;;;;;;;;;;4956997;28;20740;-63
2021/12/18 08:39:48;;;;;;;14.47;9.10;;;;;;;;;;4967428;28;20200;-63
2021/12/18 08:42:16;;;;;;;21.00;10.83;;;;;;;;;;4950953;28;20232;-64
2021/12/18 08:44:43;;;;;;;25.30;10.40;;;;;;;;;;4954522;28;21445;-63
2021/12/18 08:47:10;;;;;;;28.37;10.50;;;;;;;;;;4960107;28;20209;-63
2021/12/18 08:49:41;;;;;;;31.43;10.50;;;;;;;;;;4959886;28;20220;-63
2021/12/18 08:52:08;;;;;;;19.63;10.17;;;;;;;;;;4955311;28;20236;-64
2021/12/18 08:54:36;;;;;;;32.10;10.30;;;;;;;;;;4971377;28;20263;-62
2021/12/18 08:57:08;;;;;;;18.17;11.07;;;;;;;;;;4967896;28;20243;-64
2021/12/18 08:59:37;;;;;;;19.87;11.07;;;;;;;;;;4956184;28;20208;-63
2021/12/18 09:02:05;;;;;;;26.20;12.83;;;;;;;;;;4953586;28;20231;-63
2021/12/18 09:04:32;;;;;;;26.03;11.03;;;;;;;;;;4976277;28;20220;-64
2021/12/18 09:07:00;;;;;;;22.43;11.77;;;;;;;;;;4976762;28;20216;-65
2021/12/18 09:09:27;;;;;;;29.10;14.73;;;;;;;;;;4974036;28;20220;-64
2021/12/18 09:11:55;;;;;;;16.83;10.77;;;;;;;;;;4973682;28;20243;-63
2021/12/18 09:14:22;;;;;;;42.87;11.03;;;;;;;;;;4960105;28;20216;-64
2021/12/18 09:16:52;;;;;;;24.23;10.10;;;;;;;;;;4954996;28;20232;-64
2021/12/18 09:19:19;;;;;;;49.60;11.87;;;;;;;;;;4975088;28;20263;-63
2021/12/18 09:21:47;;;;;;;41.47;11.57;;;;;;;;;;4964739;28;20260;-63
2021/12/18 09:24:14;;;;;;;21.13;12.73;;;;;;;;;;4961307;28;20242;-64
2021/12/18 09:26:42;;;;;;;39.20;11.50;;;;;;;;;;4953110;28;20243;-64
2021/12/18 09:29:09;;;;;;;33.67;10.83;;;;;;;;;;4978046;28;20223;-63
2021/12/18 09:31:36;;;;;;;21.50;10.90;;;;;;;;;;4982735;28;20620;-64
2021/12/18 09:34:04;;;;;;;29.03;11.33;;;;;;;;;;4965740;28;20247;-65
2021/12/18 09:36:32;;;;;;;33.63;11.20;;;;;;;;;;4964244;28;20235;-62
2021/12/18 09:39:02;;;;;;;27.47;9.90;;;;;;;;;;4971380;28;20208;-64
2021/12/18 09:41:30;;;;;;;21.87;11.27;;;;;;;;;;4955236;28;20319;-63
2021/12/18 09:43:57;;;;;;;27.77;11.83;;;;;;;;;;4957681;28;20632;-64
2021/12/18 09:46:25;;;;;;;36.87;12.97;;;;;;;;;;4958917;28;20306;-63
2021/12/18 09:48:53;;;;;;;36.97;11.53;;;;;;;;;;4970508;28;20216;-62
2021/12/18 09:51:29;;;;;;;17.20;10.60;;;;;;;;;;4960195;28;20261;-63
2021/12/18 09:53:57;;;;;;;26.73;10.67;;;;;;;;;;4953444;28;20212;-64
2021/12/18 09:56:26;;;;;;;20.07;10.97;;;;;;;;;;4952894;28;20243;-63
2021/12/18 09:58:53;;;;;;;31.20;13.03;;;;;;;;;;4972992;28;20208;-64
2021/12/18 10:01:21;;;;;;;22.10;10.13;;;;;;;;;;4958491;28;20286;-62
2021/12/18 10:03:51;;;;;;;19.23;9.30;;;;;;;;;;4959344;28;20753;-64
2021/12/18 10:06:29;;;;;;;18.00;10.33;;;;;;;;;;4953898;28;20209;-63
2021/12/18 10:08:56;;;;;;;18.37;10.47;;;;;;;;;;4974853;28;20196;-64
2021/12/18 10:11:24;;;;;;;20.53;11.80;;;;;;;;;;4963777;28;20283;-64
2021/12/18 10:13:58;;;;;;;20.07;12.13;;;;;;;;;;4958329;28;20211;-64
2021/12/18 10:16:27;;;;;;;18.00;10.80;;;;;;;;;;4974328;28;20235;-65
2021/12/18 10:18:55;;;;;;;17.77;10.97;;;;;;;;;;4956942;28;20209;-64
2021/12/18 10:21:24;;;;;;;20.17;10.37;;;;;;;;;;4981909;28;20240;-64
2021/12/18 10:23:53;;;;;;;16.60;10.00;;;;;;;;;;4953045;28;20216;-64
2021/12/18 10:26:33;;;;;;;15.83;9.93;;;;;;;;;;4957214;28;20227;-63
2021/12/18 10:29:01;;;;;;;14.77;10.10;;;;;;;;;;4973779;28;20287;-63
2021/12/18 10:31:57;;;;;;;14.33;9.53;;;;;;;;;;4981503;28;20216;-63
2021/12/18 10:34:27;;;;;;;14.10;9.23;;;;;;;;;;4957701;28;20559;-63
2021/12/18 10:37:08;;;;;;;17.37;9.87;;;;;;;;;;4963013;28;20224;-64
2021/12/18 10:39:36;;;;;;;15.00;9.60;;;;;;;;;;4967736;28;20740;-64
2021/12/18 10:42:24;;;;;;;18.00;9.93;;;;;;;;;;4970314;28;20228;-63
2021/12/18 10:45:00;;;;;;;15.80;9.77;;;;;;;;;;4963560;28;20212;-64
2021/12/18 10:47:42;;;;;;;15.70;9.70;;;;;;;;;;4962605;28;20200;-64
2021/12/18 10:50:17;;;;;;;15.90;9.37;;;;;;;;;;4972715;28;20775;-64
2021/12/18 10:52:46;;;;;;;14.80;9.03;;;;;;;;;;4974909;28;20315;-62
2021/12/18 10:55:13;;;;;;;14.43;9.47;;;;;;;;;;4971834;28;20209;-63
2021/12/18 10:57:44;;;;;;;15.70;9.70;;;;;;;;;;4961820;28;20231;-63
2021/12/18 11:00:13;;;;;;;15.53;9.47;;;;;;;;;;4967595;28;20268;-65
2021/12/18 11:02:43;;;;;;;15.60;9.57;;;;;;;;;;4965524;28;20232;-65
2021/12/18 11:05:15;;;;;;;16.57;10.37;;;;;;;;;;4973148;28;20255;-63
2021/12/18 11:07:44;;;;;;;17.37;9.33;;;;;;;;;;4973125;28;20204;-64
2021/12/18 11:10:42;;;;;;;19.97;12.17;;;;;;;;;;4965164;28;20260;-64
2021/12/18 11:15:58;;;;;;;19.60;12.37;;;;;;;;;;4967518;28;20263;-63
2021/12/18 11:18:25;;;;;;;16.70;9.47;;;;;;;;;;4974042;28;20240;-65
2021/12/18 11:20:53;;;;;;;17.30;10.03;;;;;;;;;;4977525;28;20201;-64
2021/12/18 11:23:26;;;;;;;17.93;9.50;;;;;;;;;;4950787;28;20228;-65
2021/12/18 11:25:55;;;;;;;17.43;10.43;;;;;;;;;;4961629;28;20265;-64
2021/12/18 11:28:25;;;;;;;15.30;9.13;;;;;;;;;;4985236;28;20219;-63
2021/12/18 11:30:57;;;;;;;17.17;9.73;;;;;;;;;;4981442;28;20295;-65
2021/12/18 11:33:25;;;;;;;18.60;10.60;;;;;;;;;;4967020;28;20238;-64
2021/12/18 11:35:52;;;;;;;17.37;10.17;;;;;;;;;;4966523;28;20216;-65
2021/12/18 11:38:20;;;;;;;21.60;10.67;;;;;;;;;;4969943;28;20633;-64
2021/12/18 11:40:49;;;;;;;20.53;10.67;;;;;;;;;;4974745;28;20207;-63
2021/12/18 11:43:35;;;;;;;20.00;10.83;;;;;;;;;;4989129;28;20226;-64
2021/12/18 11:46:21;;;;;;;19.60;10.67;;;;;;;;;;4979738;28;20208;-63
2021/12/18 11:48:52;;;;;;;18.40;10.40;;;;;;;;;;4979067;28;20358;-64
2021/12/18 11:51:20;;;;;;;18.77;10.70;;;;;;;;;;4964543;28;20750;-63
2021/12/18 11:53:47;;;;;;;17.40;10.03;;;;;;;;;;4983678;28;20205;-64
2021/12/18 11:56:14;;;;;;;19.93;10.57;;;;;;;;;;4973304;28;20219;-65
2021/12/18 11:58:44;;;;;;;17.83;10.93;;;;;;;;;;4978520;28;20235;-64
2021/12/18 12:01:24;;;;;;;17.97;10.00;;;;;;;;;;4996241;28;20197;-65
2021/12/18 12:03:52;;;;;;;17.43;9.80;;;;;;;;;;4982576;28;20245;-64
2021/12/18 12:06:30;;;;;;;16.57;10.77;;;;;;;;;;4968115;28;20303;-63
2021/12/18 12:09:21;;;;;;;16.63;9.73;;;;;;;;;;4974512;28;20579;-64
2021/12/18 12:11:51;;;;;;;16.87;10.67;;;;;;;;;;4973651;28;20221;-63
2021/12/18 12:14:20;;;;;;;16.43;9.37;;;;;;;;;;4970123;28;20223;-64
2021/12/18 12:16:48;;;;;;;17.03;9.93;;;;;;;;;;4978689;28;20200;-64
2021/12/18 12:19:18;;;;;;;15.23;10.00;;;;;;;;;;4975805;28;20264;-63
2021/12/18 12:21:46;;;;;;;15.80;9.60;;;;;;;;;;4984373;28;20224;-64
2021/12/18 12:24:14;;;;;;;15.70;9.93;;;;;;;;;;4967787;28;20227;-63
2021/12/18 12:26:41;;;;;;;15.23;9.83;;;;;;;;;;4972806;28;20240;-64
2021/12/18 12:29:13;;;;;;;14.23;10.37;;;;;;;;;;4972040;28;20820;-64
2021/12/18 12:31:54;;;;;;;13.63;9.33;;;;;;;;;;4988489;28;20266;-64
2021/12/18 12:34:21;;;;;;;10.63;7.83;;;;;;;;;;4970134;28;20622;-64
2021/12/18 12:36:49;;;;;;;10.67;7.87;;;;;;;;;;4965280;28;20262;-64
2021/12/18 12:39:17;;;;;;;9.37;6.53;;;;;;;;;;4974952;28;20212;-64
2021/12/18 12:41:51;;;;;;;9.60;6.63;;;;;;;;;;4966413;28;20227;-64
2021/12/18 12:44:29;;;;;;;7.87;6.63;;;;;;;;;;4967177;28;20227;-64
2021/12/18 12:47:15;;;;;;;9.13;7.20;;;;;;;;;;4974623;28;20208;-64
2021/12/18 12:49:44;;;;;;;14.03;8.70;;;;;;;;;;4971680;28;20220;-64
2021/12/18 12:52:13;;;;;;;14.17;7.97;;;;;;;;;;4973303;28;20220;-63
2021/12/18 12:54:40;;;;;;;13.30;8.37;;;;;;;;;;4975749;28;20271;-64
2021/12/18 12:57:23;;;;;;;11.97;7.60;;;;;;;;;;4980661;28;20236;-64
2021/12/18 13:00:06;;;;;;;77.67;36.43;;;;;;;;;;4970025;28;20219;-63
2021/12/18 13:02:54;;;;;;;78.83;43.23;;;;;;;;;;4972420;28;20706;-65
2021/12/18 13:05:22;;;;;;;25.83;18.47;;;;;;;;;;4962884;28;20204;-64
2021/12/18 13:07:50;;;;;;;12.03;9.57;;;;;;;;;;4973115;28;20212;-64
2021/12/18 13:10:19;;;;;;;13.97;11.97;;;;;;;;;;4977140;28;20208;-64
2021/12/18 13:12:52;;;;;;;12.03;10.63;;;;;;;;;;4984200;28;20665;-65
2021/12/18 13:15:20;;;;;;;7.43;6.03;;;;;;;;;;4976742;28;20200;-64
2021/12/18 13:17:48;;;;;;;8.33;6.80;;;;;;;;;;4980901;28;20225;-65
2021/12/18 13:20:16;;;;;;;8.90;6.90;;;;;;;;;;4968552;28;20209;-63
2021/12/18 13:22:52;;;;;;;8.77;7.17;;;;;;;;;;4982706;28;20220;-65
2021/12/18 13:25:20;;;;;;;9.33;6.93;;;;;;;;;;4996555;28;20219;-63
2021/12/18 13:28:06;;;;;;;7.40;6.33;;;;;;;;;;4978897;28;20263;-64
2021/12/18 13:30:36;;;;;;;9.10;6.50;;;;;;;;;;4971548;28;20260;-64
2021/12/18 13:33:05;;;;;;;8.10;6.13;;;;;;;;;;4969893;28;20236;-64
2021/12/18 13:35:34;;;;;;;8.20;6.67;;;;;;;;;;4967386;28;20754;-63
2021/12/18 13:38:03;;;;;;;7.33;5.70;;;;;;;;;;4982231;28;20669;-64
2021/12/18 13:40:33;;;;;;;7.97;6.97;;;;;;;;;;4972103;28;20208;-64
2021/12/18 13:43:10;;;;;;;7.23;5.73;;;;;;;;;;4961313;28;20232;-64
2021/12/18 13:45:51;;;;;;;7.00;6.17;;;;;;;;;;4986145;28;20679;-63
2021/12/18 13:48:20;;;;;;;9.90;6.00;;;;;;;;;;4972044;28;20219;-63
2021/12/18 13:50:55;;;;;;;8.67;6.40;;;;;;;;;;4964736;28;20300;-64
2021/12/18 13:53:23;;;;;;;7.47;6.23;;;;;;;;;;4985919;28;20230;-64
2021/12/18 13:55:57;;;;;;;8.40;6.53;;;;;;;;;;4979593;28;20204;-64
2021/12/18 13:58:28;;;;;;;8.53;7.00;;;;;;;;;;4968250;28;20238;-64
2021/12/18 14:00:59;;;;;;;7.80;6.20;;;;;;;;;;4968905;28;20215;-63
2021/12/18 14:03:26;;;;;;;10.13;6.53;;;;;;;;;;4971531;28;20220;-63
2021/12/18 14:05:55;;;;;;;9.67;7.57;;;;;;;;;;4988401;28;20208;-64
2021/12/18 14:08:23;;;;;;;8.40;6.80;;;;;;;;;;4979956;28;20204;-64
2021/12/18 14:10:51;;;;;;;7.60;6.03;;;;;;;;;;4979591;28;20200;-65
2021/12/18 14:13:19;;;;;;;7.53;6.13;;;;;;;;;;4987089;28;20233;-63
2021/12/18 14:15:46;;;;;;;8.93;6.33;;;;;;;;;;4983535;28;20208;-64
2021/12/18 14:18:33;;;;;;;9.80;6.90;;;;;;;;;;4965041;28;20223;-64
2021/12/18 14:21:01;;;;;;;7.27;5.93;;;;;;;;;;4983865;28;20208;-65
2021/12/18 14:23:33;;;;;;;7.10;5.50;;;;;;;;;;4973015;28;20224;-64
2021/12/18 14:26:13;;;;;;;6.57;5.70;;;;;;;;;;4972592;28;20823;-64
2021/12/18 14:28:42;;;;;;;6.13;5.53;;;;;;;;;;4979431;28;20339;-64
2021/12/18 14:31:28;;;;;;;6.93;5.77;;;;;;;;;;4972964;28;20208;-64
2021/12/18 14:33:57;;;;;;;10.70;6.27;;;;;;;;;;4975781;28;20628;-64
2021/12/18 14:36:58;;;;;;;7.57;5.57;;;;;;;;;;4966822;28;20209;-65
2021/12/18 14:39:33;;;;;;;11.27;8.03;;;;;;;;;;4947955;28;20228;-64
2021/12/18 14:42:11;;;;;;;8.43;6.50;;;;;;;;;;4969225;28;20269;-64
2021/12/18 14:44:56;;;;;;;8.73;5.70;;;;;;;;;;4966928;28;20222;-64
2021/12/18 14:47:35;;;;;;;10.53;6.97;;;;;;;;;;4944243;28;20888;-64
2021/12/18 14:50:05;;;;;;;9.30;7.00;;;;;;;;;;4956725;28;20254;-64
2021/12/18 14:52:47;;;;;;;9.93;6.83;;;;;;;;;;4943474;28;20246;-65
2021/12/18 14:55:19;;;;;;;10.53;7.90;;;;;;;;;;4968195;28;20207;-65
2021/12/18 14:57:57;;;;;;;10.07;7.60;;;;;;;;;;4944504;28;20236;-65
2021/12/18 15:00:28;;;;;;;8.87;6.73;;;;;;;;;;4951920;28;20204;-64
2021/12/18 15:03:28;;;;;;;10.17;7.73;;;;;;;;;;4955817;28;20232;-64
2021/12/18 15:06:04;;;;;;;10.37;7.67;;;;;;;;;;4895018;28;20254;-64
2021/12/18 15:08:42;;;;;;;10.83;8.13;;;;;;;;;;4959393;28;20208;-64
2021/12/18 15:11:12;;;;;;;10.60;8.03;;;;;;;;;;4953281;28;20490;-63
2021/12/18 15:13:42;;;;;;;11.97;8.43;;;;;;;;;;4949667;28;20232;-64